Time;durP1;ratioP1;P1;durP2;ratioP2;P2;SDS_P1;SDS_P2;PMS_P1;PMS_P2;Temp;Humidity;BMP_temperature;BMP_pressure;BME280_temperature;BME280_humidity;BME280_pressure;Samples;Min_cycle;Max_cycle;Signal;HPM_P1;HPM_P2
2022/07/12 00:01:41;;;;;;;1.02;0.80;;;18.00;99.90;;;;;;4865404;29;37768;-81
2022/07/12 00:04:08;;;;;;;1.35;0.80;;;18.00;99.90;;;;;;4880596;29;38322;-80
2022/07/12 00:06:39;;;;;;;1.08;0.80;;;18.00;99.90;;;;;;4871083;29;38869;-81
2022/07/12 00:09:07;;;;;;;1.30;0.98;;;17.90;99.90;;;;;;4862021;29;37691;-81
2022/07/12 00:11:39;;;;;;;0.95;0.77;;;17.90;99.90;;;;;;4882785;29;38586;-81
2022/07/12 00:14:16;;;;;;;1.13;0.90;;;17.90;99.90;;;;;;4846314;29;39262;-80
2022/07/12 00:16:44;;;;;;;1.63;1.00;;;17.90;99.90;;;;;;4858115;29;38510;-81
2022/07/12 00:19:11;;;;;;;1.77;1.13;;;17.80;99.90;;;;;;4880084;29;38619;-81
2022/07/12 00:21:38;;;;;;;1.50;0.90;;;17.80;99.90;;;;;;4884320;29;37020;-81
2022/07/12 00:24:08;;;;;;;1.13;1.02;;;17.80;99.90;;;;;;4862746;29;38873;-81
2022/07/12 00:26:35;;;;;;;1.63;0.80;;;17.70;99.90;;;;;;4879958;29;39698;-80
2022/07/12 00:29:03;;;;;;;0.93;0.82;;;17.70;99.90;;;;;;4885019;29;39257;-81
2022/07/12 00:31:30;;;;;;;0.70;0.70;;;17.70;99.90;;;;;;4896582;29;50376;-83
2022/07/12 00:33:57;;;;;;;0.90;0.85;;;17.60;99.90;;;;;;4881413;29;40153;-81
2022/07/12 00:36:25;;;;;;;0.85;0.73;;;17.60;99.90;;;;;;4862782;29;38588;-80
2022/07/12 00:38:52;;;;;;;2.00;1.00;;;17.60;99.90;;;;;;4862226;29;38442;-81
2022/07/12 00:41:20;;;;;;;2.00;1.10;;;17.50;99.90;;;;;;4860580;29;37598;-81
2022/07/12 00:43:46;;;;;;;2.17;0.90;;;17.50;99.90;;;;;;4861904;29;39919;-81
2022/07/12 00:46:22;;;;;;;2.03;0.90;;;17.50;99.90;;;;;;4863129;29;38837;-80
2022/07/12 00:51:33;;;;;;;3.35;0.90;;;17.40;99.90;;;;;;4702157;27;20035;-81
2022/07/12 00:54:08;;;;;;;1.92;1.05;;;17.40;99.90;;;;;;4823840;29;38185;-81
2022/07/12 00:56:39;;;;;;;2.35;1.30;;;17.30;99.90;;;;;;4839606;29;48499;-81
2022/07/12 00:59:09;;;;;;;1.52;1.25;;;17.30;99.90;;;;;;4849276;29;38537;-81
2022/07/12 01:01:39;;;;;;;2.92;1.10;;;17.30;99.90;;;;;;4840403;29;37637;-81
2022/07/12 01:04:06;;;;;;;1.58;1.20;;;17.30;99.90;;;;;;4841614;29;38247;-81
2022/07/12 01:06:41;;;;;;;1.77;1.30;;;17.20;99.90;;;;;;4831881;29;38920;-80
2022/07/12 01:09:07;;;;;;;3.60;1.55;;;17.20;99.90;;;;;;4827289;29;37887;-82
2022/07/12 01:11:36;;;;;;;1.50;1.40;;;17.10;99.90;;;;;;4836266;29;37684;-79
2022/07/12 01:14:03;;;;;;;1.70;1.33;;;17.10;99.90;;;;;;4840036;29;38894;-81
2022/07/12 01:16:32;;;;;;;1.35;1.27;;;17.10;99.90;;;;;;5097230;23;38485;-80
2022/07/12 01:19:04;;;;;;;1.50;1.40;;;17.10;99.90;;;;;;4853662;29;38161;-80
2022/07/12 01:21:38;;;;;;;3.83;1.67;;;17.10;99.90;;;;;;4827754;29;48503;-81
2022/07/12 01:24:11;;;;;;;3.67;1.92;;;17.10;99.90;;;;;;4836843;29;39400;-81
2022/07/12 01:26:41;;;;;;;2.25;1.60;;;17.10;99.90;;;;;;4862818;29;38359;-81
2022/07/12 01:29:09;;;;;;;2.10;1.90;;;17.10;99.90;;;;;;4854991;29;37383;-81
2022/07/12 01:31:46;;;;;;;3.20;2.28;;;17.10;99.90;;;;;;4865801;29;37855;-81
2022/07/12 01:34:15;;;;;;;3.67;2.40;;;17.10;99.90;;;;;;4861140;29;38194;-82
2022/07/12 01:36:46;;;;;;;2.92;2.10;;;17.20;99.90;;;;;;4829738;29;38752;-80
2022/07/12 01:39:25;;;;;;;4.95;2.42;;;17.10;99.90;;;;;;4850100;29;38733;-81
2022/07/12 01:41:53;;;;;;;2.92;2.22;;;17.10;99.90;;;;;;4839892;29;36841;-81
2022/07/12 01:44:27;;;;;;;3.83;2.30;;;17.00;99.90;;;;;;4844170;29;39130;-81
2022/07/12 01:46:55;;;;;;;2.55;2.08;;;17.00;99.90;;;;;;4860722;29;38788;-81
2022/07/12 01:49:23;;;;;;;3.65;2.00;;;17.00;99.90;;;;;;4845161;29;39610;-82
2022/07/12 01:51:56;;;;;;;2.03;1.83;;;17.00;99.90;;;;;;4845229;29;37120;-81
2022/07/12 01:54:28;;;;;;;;;;;17.00;99.90;;;;;;4838046;29;41025;-81
2022/07/12 01:56:55;;;;;;;2.40;1.70;;;16.90;99.90;;;;;;4823191;29;38907;-80
2022/07/12 01:59:43;;;;;;;3.00;2.03;;;16.80;99.90;;;;;;4853551;29;38537;-81
2022/07/12 02:02:14;;;;;;;2.35;2.15;;;16.80;99.90;;;;;;4845046;29;37529;-81
2022/07/12 02:04:42;;;;;;;3.58;2.00;;;16.80;99.90;;;;;;4861720;29;39676;-81
2022/07/12 02:07:16;;;;;;;2.17;1.85;;;16.80;99.90;;;;;;4851154;29;38485;-81
2022/07/12 02:09:45;;;;;;;2.15;1.60;;;16.70;99.90;;;;;;4861829;29;37437;-81
2022/07/12 02:12:17;;;;;;;2.33;1.50;;;16.70;99.90;;;;;;4846904;29;37102;-80
2022/07/12 02:14:56;;;;;;;2.25;1.77;;;16.70;99.90;;;;;;4859496;29;40658;-81
2022/07/12 02:17:26;;;;;;;2.20;2.00;;;16.70;99.90;;;;;;4861859;29;39039;-81
2022/07/12 02:19:54;;;;;;;1.45;1.35;;;16.60;99.90;;;;;;4851974;29;38455;-81
2022/07/12 02:22:23;;;;;;;3.30;1.52;;;16.60;99.90;;;;;;4860053;29;37532;-81
2022/07/12 02:24:54;;;;;;;2.35;2.08;;;16.60;99.90;;;;;;4863827;29;39517;-78
2022/07/12 02:27:21;;;;;;;2.92;1.83;;;16.50;99.90;;;;;;4878973;29;39791;-80
2022/07/12 02:29:47;;;;;;;2.78;1.90;;;16.50;99.90;;;;;;4864784;29;38230;-80
2022/07/12 02:32:14;;;;;;;2.95;1.95;;;16.40;99.90;;;;;;4862612;29;36332;-80
2022/07/12 02:34:40;;;;;;;3.60;2.13;;;16.40;99.90;;;;;;4860483;29;38164;-81
2022/07/12 02:37:09;;;;;;;2.20;1.80;;;16.30;99.90;;;;;;4864193;29;38185;-80
2022/07/12 02:39:38;;;;;;;2.40;2.20;;;16.20;99.90;;;;;;4863820;29;37882;-80
2022/07/12 02:42:05;;;;;;;2.20;1.90;;;16.20;99.90;;;;;;4859261;29;35907;-80
2022/07/12 02:44:32;;;;;;;2.67;2.00;;;16.20;99.90;;;;;;4879356;29;39820;-79
2022/07/12 02:47:00;;;;;;;3.28;2.17;;;16.20;99.90;;;;;;4864673;29;38404;-81
2022/07/12 02:49:27;;;;;;;2.22;2.00;;;16.20;99.90;;;;;;4862282;29;36917;-80
2022/07/12 02:51:53;;;;;;;2.08;1.80;;;16.20;99.90;;;;;;4882596;29;37658;-80
2022/07/12 02:54:20;;;;;;;2.22;1.65;;;16.20;99.90;;;;;;4878408;29;40222;-80
2022/07/12 02:56:46;;;;;;;3.00;2.08;;;16.20;99.90;;;;;;4865147;29;37234;-80
2022/07/12 02:59:15;;;;;;;2.78;1.95;;;16.10;99.90;;;;;;4863133;29;38173;-80
2022/07/12 03:01:41;;;;;;;2.40;2.00;;;16.10;99.90;;;;;;4865075;29;37681;-81
2022/07/12 03:04:08;;;;;;;1.90;1.80;;;16.10;99.90;;;;;;4862731;29;38108;-80
2022/07/12 03:06:37;;;;;;;2.17;1.95;;;16.10;99.90;;;;;;4866657;29;39226;-81
2022/07/12 03:09:04;;;;;;;2.60;2.30;;;16.10;99.90;;;;;;4864677;29;38643;-81
2022/07/12 03:11:30;;;;;;;3.10;2.60;;;16.00;99.90;;;;;;4866400;29;36436;-80
2022/07/12 03:14:01;;;;;;;4.47;2.60;;;16.00;99.90;;;;;;4866252;29;38496;-80
2022/07/12 03:16:31;;;;;;;3.20;2.90;;;16.00;99.90;;;;;;4874050;29;48581;-81
2022/07/12 03:18:58;;;;;;;3.40;2.70;;;16.00;99.90;;;;;;4864479;29;38038;-81
2022/07/12 03:21:25;;;;;;;3.45;2.80;;;15.90;99.90;;;;;;4864215;29;36043;-81
2022/07/12 03:23:51;;;;;;;5.25;2.10;;;15.90;99.90;;;;;;4881700;29;38225;-80
2022/07/12 03:26:18;;;;;;;2.42;2.03;;;15.90;99.90;;;;;;4864026;29;38093;-80
2022/07/12 03:28:45;;;;;;;3.08;2.30;;;15.90;99.90;;;;;;4862644;29;37950;-81
2022/07/12 03:31:11;;;;;;;2.05;1.95;;;15.80;99.90;;;;;;4862912;29;36382;-80
2022/07/12 03:33:38;;;;;;;2.72;1.80;;;15.80;99.90;;;;;;4863397;29;38521;-79
2022/07/12 03:36:06;;;;;;;3.03;2.30;;;15.80;99.90;;;;;;4877637;29;39545;-81
2022/07/12 03:38:32;;;;;;;2.33;2.13;;;15.70;99.90;;;;;;4865862;29;38060;-81
2022/07/12 03:40:59;;;;;;;4.35;2.30;;;15.70;99.90;;;;;;4863441;29;36006;-80
2022/07/12 03:43:50;;;;;;;4.07;2.75;;;15.70;99.90;;;;;;4864120;29;38956;-80
2022/07/12 03:46:16;;;;;;;2.55;2.17;;;15.80;99.90;;;;;;4843813;29;38330;-81
2022/07/12 03:48:43;;;;;;;2.70;2.03;;;15.80;99.90;;;;;;4881538;29;38342;-81
2022/07/12 03:51:15;;;;;;;3.35;2.22;;;15.80;99.90;;;;;;4857418;29;37412;-81
2022/07/12 03:53:42;;;;;;;;;;;15.80;99.90;;;;;;4880765;29;40168;-80
2022/07/12 03:57:13;;;;;;;3.42;2.50;;;15.80;99.90;;;;;;4868245;29;40194;-80
2022/07/12 03:59:02;;;;;;;2.83;2.50;;;15.90;99.90;;;;;;4872246;29;39692;-80
2022/07/12 04:01:29;;;;;;;4.13;2.33;;;15.80;99.90;;;;;;4872265;29;48693;-81
2022/07/12 04:03:56;;;;;;;3.05;2.50;;;15.90;99.90;;;;;;4865001;29;38821;-80
2022/07/12 04:06:25;;;;;;;4.57;2.55;;;15.90;99.90;;;;;;4877947;29;39453;-80
2022/07/12 04:08:52;;;;;;;3.05;2.78;;;15.90;99.90;;;;;;4876988;29;37450;-80
2022/07/12 04:11:19;;;;;;;2.90;2.58;;;15.90;99.90;;;;;;4862712;29;37121;-80
2022/07/12 04:13:45;;;;;;;2.72;2.38;;;15.90;99.90;;;;;;4857091;29;38745;-80
2022/07/12 04:16:12;;;;;;;3.50;3.20;;;16.00;99.90;;;;;;4869232;29;38406;-81
2022/07/12 04:18:38;;;;;;;3.13;2.83;;;16.10;99.90;;;;;;4871372;29;37395;-79
2022/07/12 04:21:12;;;;;;;3.47;3.17;;;16.20;99.90;;;;;;4863459;29;36171;-80
2022/07/12 04:23:40;;;;;;;3.53;3.22;;;16.20;99.90;;;;;;4883483;29;39199;-81
2022/07/12 04:26:13;;;;;;;3.72;3.22;;;16.30;99.90;;;;;;4870914;29;37373;-80
2022/07/12 04:28:40;;;;;;;4.72;3.47;;;16.40;99.90;;;;;;4873427;29;38122;-81
2022/07/12 04:31:06;;;;;;;4.65;3.55;;;16.50;99.90;;;;;;4875072;29;38696;-80
2022/07/12 04:33:33;;;;;;;4.68;4.13;;;16.60;99.90;;;;;;4864099;29;37846;-80
2022/07/12 04:36:00;;;;;;;5.47;4.50;;;16.60;99.90;;;;;;4877042;29;37131;-80
2022/07/12 04:38:26;;;;;;;4.80;4.00;;;16.70;99.90;;;;;;4873988;29;36942;-79
2022/07/12 04:40:56;;;;;;;4.82;3.97;;;16.80;99.90;;;;;;4879007;29;38445;-80
2022/07/12 04:43:31;;;;;;;6.55;5.95;;;16.80;99.90;;;;;;4848087;29;37395;-82
2022/07/12 04:46:09;;;;;;;5.47;4.93;;;16.90;99.90;;;;;;4860899;29;39236;-80
2022/07/12 04:48:35;;;;;;;6.75;5.97;;;17.00;99.90;;;;;;4846220;29;47744;-80
2022/07/12 04:51:04;;;;;;;6.85;6.20;;;17.10;99.90;;;;;;4880481;29;36765;-81
2022/07/12 04:53:30;;;;;;;10.48;9.02;;;17.20;99.90;;;;;;4885450;29;37987;-80
2022/07/12 04:55:57;;;;;;;7.03;6.43;;;17.30;99.90;;;;;;4871007;29;37503;-80
2022/07/12 04:58:24;;;;;;;7.47;6.75;;;17.50;99.90;;;;;;4867802;29;37810;-80
2022/07/12 05:00:51;;;;;;;8.18;6.75;;;17.50;99.90;;;;;;4868062;29;38164;-82
2022/07/12 05:03:17;;;;;;;8.75;7.85;;;17.50;99.90;;;;;;4858898;29;37729;-81
2022/07/12 05:05:44;;;;;;;6.82;6.10;;;17.60;99.90;;;;;;4871423;29;37734;-80
2022/07/12 05:08:14;;;;;;;9.27;6.63;;;17.70;99.90;;;;;;4871849;29;36405;-81
2022/07/12 05:10:42;;;;;;;7.30;6.60;;;17.80;99.90;;;;;;4878909;29;36433;-82
2022/07/12 05:13:10;;;;;;;7.35;6.57;;;17.90;99.90;;;;;;4864460;29;40621;-81
2022/07/12 05:15:37;;;;;;;7.03;6.40;;;18.00;99.90;;;;;;4871027;29;38694;-82
2022/07/12 05:18:11;;;;;;;7.05;6.32;;;18.30;99.90;;;;;;4873007;29;38472;-81
2022/07/12 05:20:38;;;;;;;7.65;6.95;;;18.50;99.90;;;;;;4892974;29;37848;-81
2022/07/12 05:23:05;;;;;;;8.45;7.65;;;18.70;99.90;;;;;;4887790;29;39297;-81
2022/07/12 05:25:33;;;;;;;9.32;8.43;;;18.80;99.90;;;;;;4868171;29;38543;-82
2022/07/12 05:28:18;;;;;;;7.20;6.50;;;18.90;99.90;;;;;;4897792;29;38144;-81
2022/07/12 05:31:04;;;;;;;7.65;6.95;;;19.20;99.90;;;;;;4896246;29;49288;-82
2022/07/12 05:33:31;;;;;;;12.52;7.22;;;19.40;99.90;;;;;;4868586;29;49900;-82
2022/07/12 05:36:04;;;;;;;6.47;5.72;;;19.60;99.90;;;;;;5234628;23;38767;-83
2022/07/12 05:38:41;;;;;;;7.50;6.80;;;19.80;99.90;;;;;;5073315;23;49669;-81
2022/07/12 05:41:10;;;;;;;8.23;6.25;;;20.00;99.90;;;;;;4867249;29;37839;-82
2022/07/12 05:43:40;;;;;;;5.75;5.25;;;20.10;99.90;;;;;;4841344;29;38822;-80
2022/07/12 05:46:08;;;;;;;7.43;6.20;;;20.40;99.90;;;;;;4858498;29;36414;-81
2022/07/12 05:48:41;;;;;;;9.27;7.25;;;20.60;99.90;;;;;;4864250;29;38864;-81
2022/07/12 05:53:54;;;;;;;8.13;7.32;;;20.50;99.90;;;;;;4875043;29;39890;-81
2022/07/12 05:56:36;;;;;;;9.60;6.55;;;20.40;99.90;;;;;;4870177;29;39165;-81
2022/07/12 05:59:13;;;;;;;8.15;6.78;;;20.10;99.90;;;;;;4873238;29;39020;-81
2022/07/12 06:01:40;;;;;;;8.82;6.63;;;19.90;99.90;;;;;;4849643;29;36562;-81
2022/07/12 06:04:09;;;;;;;7.55;6.72;;;19.90;99.90;;;;;;4864249;29;38436;-82
2022/07/12 06:07:00;;;;;;;7.18;6.47;;;19.80;99.90;;;;;;4877939;29;39722;-81
2022/07/12 06:09:27;;;;;;;8.25;6.30;;;19.80;99.90;;;;;;4836940;29;38087;-81
2022/07/12 06:11:54;;;;;;;7.50;6.80;;;19.60;99.90;;;;;;4861870;29;38369;-81
2022/07/12 06:14:27;;;;;;;7.28;6.55;;;19.60;99.90;;;;;;4859724;29;38732;-81
2022/07/12 06:16:57;;;;;;;10.15;6.85;;;19.80;99.90;;;;;;4846779;29;38724;-83
2022/07/12 06:19:40;;;;;;;7.80;6.97;;;19.80;99.90;;;;;;4841970;29;36631;-81
2022/07/12 06:22:21;;;;;;;7.55;6.65;;;20.20;99.90;;;;;;4841639;29;39694;-81
2022/07/12 07:32:13;;;;;;;5.10;4.60;;;22.20;99.90;;;;;;4900717;29;39196;-81
2022/07/12 07:34:45;;;;;;;6.97;4.85;;;22.20;99.90;;;;;;4899001;29;49281;-80
2022/07/12 07:37:23;;;;;;;8.20;5.82;;;22.30;99.90;;;;;;4874850;29;38760;-81
2022/07/12 07:39:52;;;;;;;8.60;5.65;;;22.10;99.90;;;;;;4878914;29;39907;-81
2022/07/12 07:42:19;;;;;;;4.55;4.15;;;22.10;99.90;;;;;;4880679;29;37224;-82
2022/07/12 07:44:46;;;;;;;4.72;4.05;;;22.10;99.90;;;;;;4881578;29;38754;-82
2022/07/12 07:47:26;;;;;;;7.18;5.63;;;22.40;99.90;;;;;;4881832;29;38205;-81
2022/07/12 07:50:08;;;;;;;7.75;5.32;;;22.40;99.90;;;;;;4906836;29;38680;-82
2022/07/12 07:52:45;;;;;;;6.53;5.93;;;22.40;99.90;;;;;;4889165;29;49206;-82
2022/07/12 07:55:13;;;;;;;5.85;4.50;;;22.20;99.90;;;;;;4884352;29;37105;-83
2022/07/12 07:57:48;;;;;;;4.40;4.00;;;22.40;99.90;;;;;;4865101;29;38136;-82
2022/07/12 08:00:15;;;;;;;5.68;4.95;;;22.80;99.90;;;;;;4863816;29;37549;-81
2022/07/12 08:02:42;;;;;;;5.13;4.53;;;22.70;99.90;;;;;;4879356;29;38049;-82
2022/07/12 08:05:09;;;;;;;7.05;4.35;;;22.80;99.90;;;;;;4894062;29;37213;-82
2022/07/12 08:07:39;;;;;;;5.82;5.05;;;23.00;99.90;;;;;;4900143;29;39548;-80
2022/07/12 08:10:08;;;;;;;6.85;5.07;;;23.00;99.90;;;;;;4866749;29;38311;-82
2022/07/12 08:12:40;;;;;;;6.45;3.97;;;23.30;99.90;;;;;;4884015;29;38568;-81
2022/07/12 08:15:40;;;;;;;12.10;4.90;;;23.70;99.90;;;;;;4869923;29;36823;-82
2022/07/12 08:18:10;;;;;;;5.65;3.50;;;24.30;99.90;;;;;;5275377;23;38651;-82
2022/07/12 08:20:39;;;;;;;9.50;4.03;;;24.40;99.90;;;;;;4859140;29;36808;-82
2022/07/12 08:23:06;;;;;;;6.47;3.75;;;24.50;99.90;;;;;;4879623;29;39136;-82
2022/07/12 08:25:49;;;;;;;4.88;3.88;;;24.30;99.90;;;;;;4881624;29;37713;-82
2022/07/12 08:28:19;;;;;;;6.07;4.85;;;24.20;99.90;;;;;;4847980;29;37622;-82
2022/07/12 08:30:51;;;;;;;10.95;4.45;;;24.50;99.90;;;;;;4894250;29;38874;-82
2022/07/12 08:33:20;;;;;;;4.55;4.05;;;24.30;99.90;;;;;;4878502;29;38752;-82
2022/07/12 08:35:49;;;;;;;4.82;3.15;;;24.40;99.90;;;;;;4881479;29;37333;-82
2022/07/12 08:38:18;;;;;;;4.05;3.50;;;24.70;99.90;;;;;;4879091;29;39992;-81
2022/07/12 08:40:46;;;;;;;4.00;3.42;;;24.50;99.90;;;;;;4882357;29;39926;-82
2022/07/12 08:43:13;;;;;;;5.25;3.10;;;24.60;99.90;;;;;;4894523;29;38708;-82
2022/07/12 08:45:43;;;;;;;5.43;3.10;;;24.20;99.90;;;;;;4884646;29;37224;-83
2022/07/12 08:48:19;;;;;;;5.95;2.78;;;24.30;99.90;;;;;;4875904;29;38262;-82
2022/07/12 08:51:10;;;;;;;3.75;2.30;;;24.70;99.90;;;;;;4884443;29;38423;-82
2022/07/12 08:56:38;;;;;;;5.68;3.10;;;24.50;99.90;;;;;;5395143;23;20048;-83
2022/07/12 08:59:46;;;;;;;3.10;2.80;;;24.50;99.90;;;;;;4857355;29;39687;-82
2022/07/12 09:02:16;;;;;;;5.97;3.20;;;24.40;99.90;;;;;;5024755;23;48922;-82
2022/07/12 09:04:43;;;;;;;3.58;2.38;;;24.60;99.90;;;;;;4876238;29;38527;-81
2022/07/12 09:07:17;;;;;;;5.50;2.92;;;24.50;99.90;;;;;;4875758;29;38365;-82
2022/07/12 09:09:45;;;;;;;3.95;2.60;;;24.40;99.90;;;;;;4879634;29;37761;-81
2022/07/12 09:12:25;;;;;;;3.88;2.53;;;24.60;99.90;;;;;;4870068;29;39035;-82
2022/07/12 09:14:55;;;;;;;8.68;2.78;;;24.70;99.90;;;;;;4851666;29;38151;-82
2022/07/12 09:17:24;;;;;;;3.95;2.22;;;24.70;99.90;;;;;;4876339;29;37787;-83
2022/07/12 09:19:58;;;;;;;2.42;2.08;;;24.70;99.90;;;;;;4855409;29;37956;-82
2022/07/12 09:22:33;;;;;;;1.98;1.70;;;25.00;99.90;;;;;;4853235;29;38474;-83
2022/07/12 09:25:20;;;;;;;6.93;2.65;;;25.10;99.90;;;;;;4861764;29;37918;-81
2022/07/12 09:28:07;;;;;;;2.20;2.00;;;25.10;99.90;;;;;;4842807;29;48430;-82
2022/07/12 09:30:55;;;;;;;4.80;2.83;;;24.90;99.90;;;;;;4865133;29;48312;-81
2022/07/12 09:37:10;;;;;;;2.28;1.83;;;24.90;99.90;;;;;;4860159;29;50455;-82
2022/07/12 09:39:38;;;;;;;4.72;2.05;;;25.30;99.90;;;;;;4870229;29;47428;-82
2022/07/12 09:42:21;;;;;;;3.95;2.40;;;25.60;99.90;;;;;;4857567;29;38999;-82
2022/07/12 09:50:57;;;;;;;1.95;1.50;;;26.00;99.90;;;;;;5103088;23;20038;-81
2022/07/12 09:58:48;;;;;;;4.60;2.10;;;26.60;99.90;;;;;;5802162;23;21226;-82
2022/07/12 10:01:25;;;;;;;3.10;2.60;;;26.80;99.90;;;;;;4884831;29;37274;-82
2022/07/12 10:03:54;;;;;;;2.33;1.77;;;26.30;99.90;;;;;;4881042;29;38943;-82
2022/07/12 10:06:30;;;;;;;2.00;1.80;;;26.10;99.90;;;;;;4879771;29;39687;-82
2022/07/12 10:09:40;;;;;;;7.07;2.03;;;26.30;99.90;;;;;;4878531;29;38999;-82
2022/07/12 10:12:31;;;;;;;4.50;2.25;;;26.30;99.90;;;;;;4841099;29;48938;-81
2022/07/12 10:15:15;;;;;;;5.57;2.80;;;26.40;99.90;;;;;;4861998;29;39098;-81
2022/07/12 10:17:54;;;;;;;3.30;1.67;;;26.70;99.90;;;;;;4872129;29;48856;-82
2022/07/12 10:20:54;;;;;;;4.15;1.95;;;26.90;99.90;;;;;;4834986;29;38247;-81
2022/07/12 10:26:41;;;;;;;4.47;1.95;;;26.70;99.90;;;;;;5417075;23;20069;-82
2022/07/12 21:14:36;;;;;;;3.33;3.03;;;24.00;99.90;;;;;;4989608;23;20041;-81
2022/07/12 21:17:07;;;;;;;3.78;3.35;;;24.00;99.90;;;;;;4880906;29;37813;-82
2022/07/12 21:19:36;;;;;;;4.90;3.25;;;24.00;99.90;;;;;;4881493;29;40122;-81
2022/07/12 21:22:12;;;;;;;8.60;3.75;;;23.90;99.90;;;;;;5077931;24;38467;-81
2022/07/12 21:24:40;;;;;;;3.70;3.05;;;24.00;99.90;;;;;;4852369;29;38158;-81
2022/07/12 21:27:13;;;;;;;3.90;3.17;;;24.00;99.90;;;;;;4849603;29;37692;-81
2022/07/12 21:30:10;;;;;;;12.50;4.15;;;24.00;99.90;;;;;;4857322;29;39359;-81
2022/07/12 21:33:10;;;;;;;3.42;3.13;;;24.00;99.90;;;;;;4861837;29;49081;-81
2022/07/12 21:35:39;;;;;;;5.45;3.40;;;24.10;99.90;;;;;;4857275;29;47471;-81
2022/07/12 21:38:34;;;;;;;6.25;3.78;;;24.10;99.90;;;;;;4841349;29;37737;-81
2022/07/12 21:45:24;;;;;;;4.55;3.30;;;24.10;99.90;;;;;;4867452;29;49671;-81
2022/07/12 21:48:12;;;;;;;5.35;3.60;;;24.10;99.90;;;;;;4832247;29;50051;-82
2022/07/12 21:50:48;;;;;;;4.05;3.47;;;24.10;99.90;;;;;;4846943;29;48959;-82
2022/07/12 21:55:51;;;;;;;5.40;3.90;;;23.90;99.90;;;;;;5451082;23;20081;-80
2022/07/12 21:58:21;;;;;;;3.53;3.20;;;23.80;99.90;;;;;;4876913;29;39021;-81
2022/07/12 22:00:53;;;;;;;4.40;3.67;;;23.80;99.90;;;;;;4868402;29;37255;-81
2022/07/12 22:04:12;;;;;;;4.63;3.47;;;23.80;99.90;;;;;;4847808;29;40282;-81
2022/07/12 22:06:58;;;;;;;4.93;3.80;;;23.70;99.90;;;;;;4831531;29;48883;-81
2022/07/12 22:09:32;;;;;;;6.22;5.22;;;23.60;99.90;;;;;;4862863;29;50085;-82
2022/07/12 22:25:00;;;;;;;6.03;5.53;;;22.40;99.90;;;;;;5718885;23;20050;-81
2022/07/12 22:27:46;;;;;;;7.60;6.72;;;22.30;99.90;;;;;;4880105;29;38764;-81
2022/07/12 22:30:18;;;;;;;8.20;6.18;;;22.20;99.90;;;;;;4897336;29;38049;-82
2022/07/12 22:35:32;;;;;;;8.20;6.55;;;22.10;99.90;;;;;;5630023;23;19904;-81
2022/07/12 22:38:25;;;;;;;8.10;7.22;;;22.10;99.90;;;;;;4899943;29;38924;-80
2022/07/12 22:40:55;;;;;;;;;;;22.10;99.90;;;;;;4880268;29;48669;-81
2022/07/12 22:43:44;;;;;;;8.07;6.88;;;22.10;99.90;;;;;;4884349;29;37588;-82
2022/07/12 22:46:16;;;;;;;8.88;6.45;;;22.20;99.90;;;;;;4862322;29;38703;-81
2022/07/12 22:48:43;;;;;;;6.90;6.28;;;22.20;99.90;;;;;;4876974;29;38835;-82
2022/07/12 22:51:52;;;;;;;6.95;5.72;;;22.30;99.90;;;;;;4863257;29;38788;-82
2022/07/12 22:54:22;;;;;;;9.32;6.53;;;22.40;99.90;;;;;;4997935;23;38075;-81
2022/07/12 22:59:27;;;;;;;6.25;5.75;;;22.50;99.90;;;;;;4868702;29;20061;-80
2022/07/12 23:01:55;;;;;;;7.22;5.60;;;22.50;99.90;;;;;;4848285;29;37172;-82
2022/07/12 23:04:23;;;;;;;8.63;5.88;;;22.50;99.90;;;;;;4844371;29;38167;-80
2022/07/12 23:06:50;;;;;;;7.03;5.70;;;22.40;99.90;;;;;;4843215;29;40585;-81
2022/07/12 23:09:29;;;;;;;6.85;5.43;;;22.40;99.90;;;;;;4843925;29;39276;-81
2022/07/12 23:11:55;;;;;;;6.97;6.28;;;22.40;99.90;;;;;;4847286;29;37455;-81
2022/07/12 23:14:23;;;;;;;8.52;5.68;;;22.40;99.90;;;;;;4827762;29;37730;-80
2022/07/12 23:16:50;;;;;;;6.93;6.20;;;22.40;99.90;;;;;;4847301;29;38710;-80
2022/07/12 23:19:21;;;;;;;6.65;6.05;;;22.40;99.90;;;;;;4861113;29;39977;-80
2022/07/12 23:22:03;;;;;;;7.68;6.28;;;22.40;99.90;;;;;;4846878;29;39823;-82
2022/07/12 23:24:36;;;;;;;7.70;5.80;;;22.40;99.90;;;;;;4842052;29;49076;-81
2022/07/12 23:27:04;;;;;;;6.85;6.22;;;22.40;99.90;;;;;;4849812;29;38221;-81
2022/07/12 23:29:31;;;;;;;12.35;6.63;;;22.30;99.90;;;;;;4857111;29;39072;-81
2022/07/12 23:32:01;;;;;;;6.93;6.05;;;22.30;99.90;;;;;;4847654;29;38242;-81
2022/07/12 23:34:42;;;;;;;6.88;5.60;;;22.30;99.90;;;;;;4834597;29;37965;-81
2022/07/12 23:37:31;;;;;;;7.22;5.85;;;22.30;99.90;;;;;;4839800;29;38317;-81
2022/07/12 23:40:24;;;;;;;6.75;5.93;;;22.40;99.90;;;;;;4837792;29;37709;-80
2022/07/12 23:43:02;;;;;;;5.95;5.13;;;22.50;99.90;;;;;;4836274;29;48455;-82
2022/07/12 23:46:01;;;;;;;9.35;6.25;;;22.50;99.90;;;;;;4832645;29;50026;-81
2022/07/12 23:48:38;;;;;;;6.50;5.85;;;22.50;99.90;;;;;;4844702;29;47836;-81
2022/07/12 23:51:06;;;;;;;6.22;5.55;;;22.60;99.90;;;;;;4846564;29;37143;-81
2022/07/12 23:53:37;;;;;;;9.88;6.50;;;22.60;99.90;;;;;;4847302;29;40151;-80
2022/07/12 23:56:17;;;;;;;8.47;6.17;;;22.60;99.90;;;;;;4828977;29;37236;-82
2022/07/12 23:58:48;;;;;;;6.95;5.65;;;22.60;99.90;;;;;;4850180;29;38376;-82
